sensor_id;sensor_type;location;lat;lon;timestamp;pressure;altitude;pressure_sealevel;temperature;humidity
67987;BME280;54767;53.800;15.956;2022-12-11T00:02:01;99754.64;;;-2.49;72.79
67987;BME280;54767;53.800;15.956;2022-12-11T00:04:31;99757.21;;;-2.53;72.83
67987;BME280;54767;53.800;15.956;2022-12-11T00:07:05;99755.39;;;-2.59;72.72
67987;BME280;54767;53.800;15.956;2022-12-11T00:09:33;99753.54;;;-2.62;72.73
67987;BME280;54767;53.800;15.956;2022-12-11T00:12:02;99748.30;;;-2.64;72.63
67987;BME280;54767;53.800;15.956;2022-12-11T00:14:32;99755.93;;;-2.65;72.66
67987;BME280;54767;53.800;15.956;2022-12-11T00:17:00;99753.45;;;-2.67;72.61
67987;BME280;54767;53.800;15.956;2022-12-11T00:19:31;99751.45;;;-2.69;72.51
67987;BME280;54767;53.800;15.956;2022-12-11T00:21:59;99749.70;;;-2.74;72.54
67987;BME280;54767;53.800;15.956;2022-12-11T00:24:33;99748.97;;;-2.79;72.46
67987;BME280;54767;53.800;15.956;2022-12-11T00:27:01;99753.17;;;-2.84;72.59
67987;BME280;54767;53.800;15.956;2022-12-11T00:29:30;99745.21;;;-2.89;72.69
67987;BME280;54767;53.800;15.956;2022-12-11T00:31:58;99742.98;;;-2.93;72.51
67987;BME280;54767;53.800;15.956;2022-12-11T00:34:26;99740.52;;;-2.98;72.52
67987;BME280;54767;53.800;15.956;2022-12-11T00:36:55;99743.33;;;-3.00;72.40
67987;BME280;54767;53.800;15.956;2022-12-11T00:39:24;99743.98;;;-3.01;72.46
67987;BME280;54767;53.800;15.956;2022-12-11T00:41:52;99747.04;;;-3.02;72.45
67987;BME280;54767;53.800;15.956;2022-12-11T00:44:23;99742.73;;;-3.02;72.44
67987;BME280;54767;53.800;15.956;2022-12-11T00:46:52;99739.50;;;-3.05;72.25
67987;BME280;54767;53.800;15.956;2022-12-11T00:49:23;99737.95;;;-3.09;72.36
67987;BME280;54767;53.800;15.956;2022-12-11T00:51:51;99736.59;;;-3.12;72.33
67987;BME280;54767;53.800;15.956;2022-12-11T00:54:20;99738.15;;;-3.15;72.48
67987;BME280;54767;53.800;15.956;2022-12-11T00:56:49;99735.19;;;-3.20;72.40
67987;BME280;54767;53.800;15.956;2022-12-11T00:59:18;99734.59;;;-3.26;72.37
67987;BME280;54767;53.800;15.956;2022-12-11T01:01:46;99736.81;;;-3.29;72.42
67987;BME280;54767;53.800;15.956;2022-12-11T01:04:14;99734.66;;;-3.31;72.31
67987;BME280;54767;53.800;15.956;2022-12-11T01:06:42;99736.17;;;-3.31;72.19
67987;BME280;54767;53.800;15.956;2022-12-11T01:09:11;99740.94;;;-3.32;72.31
67987;BME280;54767;53.800;15.956;2022-12-11T01:11:59;99746.53;;;-3.33;72.42
67987;BME280;54767;53.800;15.956;2022-12-11T01:14:27;99743.66;;;-3.35;72.36
67987;BME280;54767;53.800;15.956;2022-12-11T01:16:55;99743.35;;;-3.38;72.35
67987;BME280;54767;53.800;15.956;2022-12-11T01:19:23;99741.45;;;-3.43;72.37
67987;BME280;54767;53.800;15.956;2022-12-11T01:21:52;99741.34;;;-3.45;72.32
67987;BME280;54767;53.800;15.956;2022-12-11T01:24:20;99733.21;;;-3.50;72.27
67987;BME280;54767;53.800;15.956;2022-12-11T01:26:48;99733.89;;;-3.53;72.28
67987;BME280;54767;53.800;15.956;2022-12-11T01:29:16;99737.84;;;-3.56;72.34
67987;BME280;54767;53.800;15.956;2022-12-11T01:31:45;99739.02;;;-3.57;72.34
67987;BME280;54767;53.800;15.956;2022-12-11T01:34:13;99742.57;;;-3.58;72.13
67987;BME280;54767;53.800;15.956;2022-12-11T01:36:41;99746.86;;;-3.58;72.31
67987;BME280;54767;53.800;15.956;2022-12-11T01:39:09;99741.98;;;-3.59;72.26
67987;BME280;54767;53.800;15.956;2022-12-11T01:41:38;99738.84;;;-3.60;72.22
67987;BME280;54767;53.800;15.956;2022-12-11T01:46:59;99740.41;;;-3.67;72.10
67987;BME280;54767;53.800;15.956;2022-12-11T01:49:28;99740.06;;;-3.70;72.24
67987;BME280;54767;53.800;15.956;2022-12-11T01:52:04;99741.29;;;-3.73;72.21
67987;BME280;54767;53.800;15.956;2022-12-11T01:54:34;99734.90;;;-3.77;72.22
67987;BME280;54767;53.800;15.956;2022-12-11T01:57:07;99731.98;;;-3.81;72.14
67987;BME280;54767;53.800;15.956;2022-12-11T01:59:38;99734.61;;;-3.83;72.26
67987;BME280;54767;53.800;15.956;2022-12-11T02:02:13;99734.59;;;-3.84;72.31
67987;BME280;54767;53.800;15.956;2022-12-11T02:04:44;99732.92;;;-3.83;72.25
67987;BME280;54767;53.800;15.956;2022-12-11T02:07:13;99727.74;;;-3.84;72.24
67987;BME280;54767;53.800;15.956;2022-12-11T02:09:44;99726.45;;;-3.86;72.18
67987;BME280;54767;53.800;15.956;2022-12-11T02:12:23;99721.67;;;-3.89;72.24
67987;BME280;54767;53.800;15.956;2022-12-11T02:18:12;99714.73;;;-3.98;72.23
67987;BME280;54767;53.800;15.956;2022-12-11T02:25:51;99719.79;;;-4.09;72.13
67987;BME280;54767;53.800;15.956;2022-12-11T02:31:01;99718.65;;;-4.11;72.09
67987;BME280;54767;53.800;15.956;2022-12-11T02:33:44;99718.27;;;-4.12;72.08
67987;BME280;54767;53.800;15.956;2022-12-11T02:36:18;99715.81;;;-4.14;72.11
67987;BME280;54767;53.800;15.956;2022-12-11T02:38:51;99712.09;;;-4.16;72.06
67987;BME280;54767;53.800;15.956;2022-12-11T02:41:21;99711.80;;;-4.18;72.10
67987;BME280;54767;53.800;15.956;2022-12-11T02:43:51;99715.73;;;-4.21;72.16
67987;BME280;54767;53.800;15.956;2022-12-11T02:46:21;99715.38;;;-4.24;72.10
67987;BME280;54767;53.800;15.956;2022-12-11T02:48:52;99719.09;;;-4.29;72.09
67987;BME280;54767;53.800;15.956;2022-12-11T02:51:25;99715.60;;;-4.34;72.08
67987;BME280;54767;53.800;15.956;2022-12-11T02:53:57;99712.66;;;-4.38;72.12
67987;BME280;54767;53.800;15.956;2022-12-11T02:56:37;99718.09;;;-4.39;71.99
67987;BME280;54767;53.800;15.956;2022-12-11T02:59:14;99720.91;;;-4.37;71.73
67987;BME280;54767;53.800;15.956;2022-12-11T03:01:46;99720.44;;;-4.36;71.75
67987;BME280;54767;53.800;15.956;2022-12-11T03:04:15;99719.48;;;-4.38;72.00
67987;BME280;54767;53.800;15.956;2022-12-11T03:06:48;99718.82;;;-4.40;71.84
67987;BME280;54767;53.800;15.956;2022-12-11T03:09:18;99719.64;;;-4.44;71.80
67987;BME280;54767;53.800;15.956;2022-12-11T03:11:46;99716.73;;;-4.47;71.76
67987;BME280;54767;53.800;15.956;2022-12-11T03:14:15;99717.41;;;-4.51;71.87
67987;BME280;54767;53.800;15.956;2022-12-11T03:16:54;99714.85;;;-4.54;71.99
67987;BME280;54767;53.800;15.956;2022-12-11T03:19:34;99718.59;;;-4.58;72.10
67987;BME280;54767;53.800;15.956;2022-12-11T03:22:14;99717.42;;;-4.60;72.07
67987;BME280;54767;53.800;15.956;2022-12-11T03:24:54;99716.36;;;-4.61;71.91
67987;BME280;54767;53.800;15.956;2022-12-11T03:30:04;99717.50;;;-4.59;72.14
67987;BME280;54767;53.800;15.956;2022-12-11T03:32:47;99718.48;;;-4.60;71.93
67987;BME280;54767;53.800;15.956;2022-12-11T03:35:33;99714.98;;;-4.62;72.02
67987;BME280;54767;53.800;15.956;2022-12-11T03:38:07;99715.04;;;-4.64;72.04
67987;BME280;54767;53.800;15.956;2022-12-11T03:40:39;99714.09;;;-4.65;72.23
67987;BME280;54767;53.800;15.956;2022-12-11T03:43:10;99705.64;;;-4.67;72.19
67987;BME280;54767;53.800;15.956;2022-12-11T03:45:39;99706.61;;;-4.68;72.36
67987;BME280;54767;53.800;15.956;2022-12-11T03:48:08;99707.54;;;-4.67;72.26
67987;BME280;54767;53.800;15.956;2022-12-11T03:50:37;99712.02;;;-4.66;72.32
67987;BME280;54767;53.800;15.956;2022-12-11T03:53:06;99714.20;;;-4.63;72.45
67987;BME280;54767;53.800;15.956;2022-12-11T03:55:37;99713.84;;;-4.61;72.00
67987;BME280;54767;53.800;15.956;2022-12-11T03:58:07;99710.94;;;-4.60;72.26
67987;BME280;54767;53.800;15.956;2022-12-11T04:00:35;99708.44;;;-4.59;72.27
67987;BME280;54767;53.800;15.956;2022-12-11T04:03:04;99718.25;;;-4.58;72.38
67987;BME280;54767;53.800;15.956;2022-12-11T04:05:47;99717.20;;;-4.58;72.44
67987;BME280;54767;53.800;15.956;2022-12-11T04:08:18;99721.70;;;-4.57;72.52
67987;BME280;54767;53.800;15.956;2022-12-11T04:10:50;99725.08;;;-4.58;72.20
67987;BME280;54767;53.800;15.956;2022-12-11T04:13:40;99728.25;;;-4.66;71.78
67987;BME280;54767;53.800;15.956;2022-12-11T04:16:08;99725.85;;;-4.69;72.40
67987;BME280;54767;53.800;15.956;2022-12-11T04:18:37;99728.48;;;-4.68;72.62
67987;BME280;54767;53.800;15.956;2022-12-11T04:21:23;99733.58;;;-4.65;72.62
67987;BME280;54767;53.800;15.956;2022-12-11T04:24:10;99731.30;;;-4.60;72.63
67987;BME280;54767;53.800;15.956;2022-12-11T04:26:43;99737.05;;;-4.55;72.66
67987;BME280;54767;53.800;15.956;2022-12-11T04:29:12;99736.73;;;-4.51;72.48
67987;BME280;54767;53.800;15.956;2022-12-11T04:31:40;99737.73;;;-4.48;72.72
67987;BME280;54767;53.800;15.956;2022-12-11T04:34:09;99732.05;;;-4.45;72.86
67987;BME280;54767;53.800;15.956;2022-12-11T04:36:37;99733.74;;;-4.43;72.59
67987;BME280;54767;53.800;15.956;2022-12-11T04:39:05;99732.45;;;-4.41;72.84
67987;BME280;54767;53.800;15.956;2022-12-11T04:41:34;99729.45;;;-4.40;72.78
67987;BME280;54767;53.800;15.956;2022-12-11T04:44:04;99728.82;;;-4.39;72.87
67987;BME280;54767;53.800;15.956;2022-12-11T04:46:32;99727.34;;;-4.38;72.93
67987;BME280;54767;53.800;15.956;2022-12-11T04:49:01;99731.25;;;-4.35;72.90
67987;BME280;54767;53.800;15.956;2022-12-11T04:51:29;99734.92;;;-4.30;72.91
67987;BME280;54767;53.800;15.956;2022-12-11T04:53:57;99734.33;;;-4.25;72.70
67987;BME280;54767;53.800;15.956;2022-12-11T04:56:27;99730.61;;;-4.21;72.93
67987;BME280;54767;53.800;15.956;2022-12-11T04:58:55;99725.84;;;-4.17;72.99
67987;BME280;54767;53.800;15.956;2022-12-11T05:01:23;99726.84;;;-4.15;72.86
67987;BME280;54767;53.800;15.956;2022-12-11T05:03:51;99725.74;;;-4.13;72.80
67987;BME280;54767;53.800;15.956;2022-12-11T05:06:19;99723.02;;;-4.13;72.66
67987;BME280;54767;53.800;15.956;2022-12-11T05:08:47;99730.27;;;-4.11;72.71
67987;BME280;54767;53.800;15.956;2022-12-11T05:11:16;99730.16;;;-4.10;72.88
67987;BME280;54767;53.800;15.956;2022-12-11T05:13:45;99724.75;;;-4.09;72.77
67987;BME280;54767;53.800;15.956;2022-12-11T05:16:14;99721.31;;;-4.06;72.73
67987;BME280;54767;53.800;15.956;2022-12-11T05:18:43;99713.77;;;-4.03;72.68
67987;BME280;54767;53.800;15.956;2022-12-11T05:21:13;99708.89;;;-3.98;72.85
67987;BME280;54767;53.800;15.956;2022-12-11T05:23:42;99710.71;;;-3.93;72.82
67987;BME280;54767;53.800;15.956;2022-12-11T05:26:13;99709.94;;;-3.91;72.69
67987;BME280;54767;53.800;15.956;2022-12-11T05:28:42;99710.66;;;-3.90;72.64
67987;BME280;54767;53.800;15.956;2022-12-11T05:31:13;99709.20;;;-3.89;72.77
67987;BME280;54767;53.800;15.956;2022-12-11T05:33:43;99710.60;;;-3.89;72.54
67987;BME280;54767;53.800;15.956;2022-12-11T05:36:31;99712.73;;;-3.90;72.51
67987;BME280;54767;53.800;15.956;2022-12-11T05:39:01;99719.27;;;-3.93;72.64
67987;BME280;54767;53.800;15.956;2022-12-11T05:41:32;99718.80;;;-3.95;72.74
67987;BME280;54767;53.800;15.956;2022-12-11T05:44:00;99718.59;;;-3.96;72.51
67987;BME280;54767;53.800;15.956;2022-12-11T05:46:29;99719.15;;;-3.95;72.50
67987;BME280;54767;53.800;15.956;2022-12-11T05:49:00;99719.46;;;-3.92;72.34
67987;BME280;54767;53.800;15.956;2022-12-11T05:51:29;99720.08;;;-3.90;72.46
67987;BME280;54767;53.800;15.956;2022-12-11T05:53:57;99713.31;;;-3.89;72.53
67987;BME280;54767;53.800;15.956;2022-12-11T05:56:31;99712.58;;;-3.87;72.51
67987;BME280;54767;53.800;15.956;2022-12-11T05:59:01;99703.08;;;-3.85;72.66
67987;BME280;54767;53.800;15.956;2022-12-11T06:01:31;99700.89;;;-3.84;72.60
67987;BME280;54767;53.800;15.956;2022-12-11T06:04:00;99702.54;;;-3.86;72.70
67987;BME280;54767;53.800;15.956;2022-12-11T06:06:29;99700.52;;;-3.85;72.76
67987;BME280;54767;53.800;15.956;2022-12-11T06:08:58;99695.73;;;-3.85;72.73
67987;BME280;54767;53.800;15.956;2022-12-11T06:11:31;99691.20;;;-3.87;72.57
67987;BME280;54767;53.800;15.956;2022-12-11T06:14:01;99690.72;;;-3.86;72.64
67987;BME280;54767;53.800;15.956;2022-12-11T06:16:30;99687.45;;;-3.82;72.71
67987;BME280;54767;53.800;15.956;2022-12-11T06:18:59;99677.77;;;-3.81;72.66
67987;BME280;54767;53.800;15.956;2022-12-11T06:21:29;99669.00;;;-3.79;72.62
67987;BME280;54767;53.800;15.956;2022-12-11T06:24:01;99673.30;;;-3.75;72.81
67987;BME280;54767;53.800;15.956;2022-12-11T06:26:30;99672.48;;;-3.74;72.75
67987;BME280;54767;53.800;15.956;2022-12-11T06:28:59;99668.56;;;-3.74;72.60
67987;BME280;54767;53.800;15.956;2022-12-11T06:31:27;99666.71;;;-3.73;72.54
67987;BME280;54767;53.800;15.956;2022-12-11T06:33:56;99668.29;;;-3.73;72.64
67987;BME280;54767;53.800;15.956;2022-12-11T06:36:26;99662.69;;;-3.75;72.48
67987;BME280;54767;53.800;15.956;2022-12-11T06:38:57;99657.10;;;-3.78;72.50
67987;BME280;54767;53.800;15.956;2022-12-11T06:41:26;99657.39;;;-3.79;72.35
67987;BME280;54767;53.800;15.956;2022-12-11T06:43:54;99659.04;;;-3.77;72.25
67987;BME280;54767;53.800;15.956;2022-12-11T06:46:22;99670.48;;;-3.73;72.25
67987;BME280;54767;53.800;15.956;2022-12-11T06:48:54;99670.95;;;-3.71;72.36
67987;BME280;54767;53.800;15.956;2022-12-11T06:51:22;99679.86;;;-3.71;72.27
67987;BME280;54767;53.800;15.956;2022-12-11T06:53:53;99686.02;;;-3.70;72.36
67987;BME280;54767;53.800;15.956;2022-12-11T06:56:26;99678.15;;;-3.71;72.36
67987;BME280;54767;53.800;15.956;2022-12-11T06:58:56;99674.38;;;-3.74;72.22
67987;BME280;54767;53.800;15.956;2022-12-11T07:01:32;99674.30;;;-3.76;72.25
67987;BME280;54767;53.800;15.956;2022-12-11T07:04:00;99670.64;;;-3.80;71.99
67987;BME280;54767;53.800;15.956;2022-12-11T07:06:32;99673.67;;;-3.85;71.92
67987;BME280;54767;53.800;15.956;2022-12-11T07:09:04;99671.45;;;-3.88;72.08
67987;BME280;54767;53.800;15.956;2022-12-11T07:11:34;99670.48;;;-3.91;72.12
67987;BME280;54767;53.800;15.956;2022-12-11T07:14:04;99669.63;;;-3.91;72.16
67987;BME280;54767;53.800;15.956;2022-12-11T07:16:35;99665.94;;;-3.89;72.29
67987;BME280;54767;53.800;15.956;2022-12-11T07:19:05;99666.44;;;-3.86;72.12
67987;BME280;54767;53.800;15.956;2022-12-11T07:21:33;99671.13;;;-3.84;72.34
67987;BME280;54767;53.800;15.956;2022-12-11T07:24:02;99672.08;;;-3.82;72.45
67987;BME280;54767;53.800;15.956;2022-12-11T07:26:30;99672.92;;;-3.82;72.44
67987;BME280;54767;53.800;15.956;2022-12-11T07:29:03;99675.83;;;-3.82;72.31
67987;BME280;54767;53.800;15.956;2022-12-11T07:31:31;99676.54;;;-3.82;72.37
67987;BME280;54767;53.800;15.956;2022-12-11T07:34:02;99674.66;;;-3.82;72.50
67987;BME280;54767;53.800;15.956;2022-12-11T07:36:32;99668.75;;;-3.84;72.32
67987;BME280;54767;53.800;15.956;2022-12-11T07:39:03;99673.20;;;-3.84;72.54
67987;BME280;54767;53.800;15.956;2022-12-11T07:41:31;99674.11;;;-3.83;72.49
67987;BME280;54767;53.800;15.956;2022-12-11T07:44:02;99674.75;;;-3.80;72.56
67987;BME280;54767;53.800;15.956;2022-12-11T07:46:32;99677.02;;;-3.76;72.61
67987;BME280;54767;53.800;15.956;2022-12-11T07:49:00;99679.73;;;-3.73;72.66
67987;BME280;54767;53.800;15.956;2022-12-11T07:51:34;99681.95;;;-3.70;72.65
67987;BME280;54767;53.800;15.956;2022-12-11T07:54:07;99681.02;;;-3.68;72.76
67987;BME280;54767;53.800;15.956;2022-12-11T07:56:38;99680.59;;;-3.66;72.70
67987;BME280;54767;53.800;15.956;2022-12-11T07:59:11;99679.31;;;-3.64;72.73
67987;BME280;54767;53.800;15.956;2022-12-11T08:01:39;99680.89;;;-3.64;72.78
67987;BME280;54767;53.800;15.956;2022-12-11T08:04:10;99687.09;;;-3.62;72.63
67987;BME280;54767;53.800;15.956;2022-12-11T08:06:43;99679.78;;;-3.61;72.70
67987;BME280;54767;53.800;15.956;2022-12-11T08:09:12;99678.81;;;-3.60;72.65
67987;BME280;54767;53.800;15.956;2022-12-11T08:11:49;99668.36;;;-3.57;72.49
67987;BME280;54767;53.800;15.956;2022-12-11T08:14:18;99664.60;;;-3.54;72.63
67987;BME280;54767;53.800;15.956;2022-12-11T08:16:47;99655.27;;;-3.49;72.73
67987;BME280;54767;53.800;15.956;2022-12-11T08:19:15;99663.11;;;-3.42;73.16
67987;BME280;54767;53.800;15.956;2022-12-11T08:21:44;99661.52;;;-3.39;72.63
67987;BME280;54767;53.800;15.956;2022-12-11T08:24:13;99658.98;;;-3.38;72.56
67987;BME280;54767;53.800;15.956;2022-12-11T08:26:43;99655.94;;;-3.38;72.54
67987;BME280;54767;53.800;15.956;2022-12-11T08:29:11;99656.05;;;-3.39;72.57
67987;BME280;54767;53.800;15.956;2022-12-11T08:31:40;99662.38;;;-3.39;72.90
67987;BME280;54767;53.800;15.956;2022-12-11T08:34:08;99669.65;;;-3.37;73.31
67987;BME280;54767;53.800;15.956;2022-12-11T08:36:40;99671.59;;;-3.36;73.42
67987;BME280;54767;53.800;15.956;2022-12-11T08:39:09;99672.12;;;-3.33;73.50
67987;BME280;54767;53.800;15.956;2022-12-11T08:41:37;99668.77;;;-3.28;73.52
67987;BME280;54767;53.800;15.956;2022-12-11T08:44:10;99665.52;;;-3.24;73.41
67987;BME280;54767;53.800;15.956;2022-12-11T08:46:44;99664.09;;;-3.18;73.22
67987;BME280;54767;53.800;15.956;2022-12-11T08:49:14;99663.93;;;-3.14;73.04
67987;BME280;54767;53.800;15.956;2022-12-11T08:51:42;99664.21;;;-3.12;72.97
67987;BME280;54767;53.800;15.956;2022-12-11T08:54:14;99664.95;;;-3.10;72.87
67987;BME280;54767;53.800;15.956;2022-12-11T08:56:42;99666.36;;;-3.10;72.86
67987;BME280;54767;53.800;15.956;2022-12-11T08:59:10;99662.56;;;-3.10;72.86
67987;BME280;54767;53.800;15.956;2022-12-11T09:01:39;99663.29;;;-3.10;72.77
67987;BME280;54767;53.800;15.956;2022-12-11T09:04:07;99657.47;;;-3.10;72.92
67987;BME280;54767;53.800;15.956;2022-12-11T09:06:35;99657.45;;;-3.07;73.23
67987;BME280;54767;53.800;15.956;2022-12-11T09:09:04;99650.46;;;-3.02;73.18
67987;BME280;54767;53.800;15.956;2022-12-11T09:11:34;99651.99;;;-2.95;73.61
67987;BME280;54767;53.800;15.956;2022-12-11T09:14:04;99650.91;;;-2.88;73.82
67987;BME280;54767;53.800;15.956;2022-12-11T09:16:38;99649.80;;;-2.83;73.78
67987;BME280;54767;53.800;15.956;2022-12-11T09:19:11;99644.38;;;-2.78;73.44
67987;BME280;54767;53.800;15.956;2022-12-11T09:21:43;99644.67;;;-2.75;73.34
67987;BME280;54767;53.800;15.956;2022-12-11T09:24:12;99642.77;;;-2.72;73.27
67987;BME280;54767;53.800;15.956;2022-12-11T09:26:41;99645.43;;;-2.70;73.21
67987;BME280;54767;53.800;15.956;2022-12-11T09:29:10;99645.65;;;-2.69;73.26
67987;BME280;54767;53.800;15.956;2022-12-11T09:31:39;99641.57;;;-2.68;73.22
67987;BME280;54767;53.800;15.956;2022-12-11T09:34:10;99635.96;;;-2.67;73.55
67987;BME280;54767;53.800;15.956;2022-12-11T09:36:40;99635.84;;;-2.62;73.94
67987;BME280;54767;53.800;15.956;2022-12-11T09:39:10;99634.13;;;-2.55;74.17
67987;BME280;54767;53.800;15.956;2022-12-11T09:42:15;99629.84;;;-2.47;74.45
67987;BME280;54767;53.800;15.956;2022-12-11T09:44:50;99636.07;;;-2.38;74.86
67987;BME280;54767;53.800;15.956;2022-12-11T09:47:24;99639.98;;;-2.31;74.41
67987;BME280;54767;53.800;15.956;2022-12-11T09:53:01;99643.13;;;-2.21;74.57
67987;BME280;54767;53.800;15.956;2022-12-11T09:55:42;99649.30;;;-2.13;74.85
67987;BME280;54767;53.800;15.956;2022-12-11T10:00:48;99635.16;;;-1.99;75.21
67987;BME280;54767;53.800;15.956;2022-12-11T10:06:35;99633.88;;;-1.80;74.88
67987;BME280;54767;53.800;15.956;2022-12-11T10:17:10;99630.67;;;-1.53;74.78
67987;BME280;54767;53.800;15.956;2022-12-11T10:19:40;99620.33;;;-1.51;74.94
67987;BME280;54767;53.800;15.956;2022-12-11T10:22:30;99617.69;;;-1.48;74.90
67987;BME280;54767;53.800;15.956;2022-12-11T10:25:04;99609.31;;;-1.43;75.17
67987;BME280;54767;53.800;15.956;2022-12-11T10:27:50;99602.09;;;-1.34;75.11
67987;BME280;54767;53.800;15.956;2022-12-11T10:35:42;99600.27;;;-1.19;74.67
67987;BME280;54767;53.800;15.956;2022-12-11T10:38:29;99596.45;;;-1.20;74.89
67987;BME280;54767;53.800;15.956;2022-12-11T10:41:04;99596.02;;;-1.23;74.82
67987;BME280;54767;53.800;15.956;2022-12-11T10:43:38;99602.59;;;-1.26;74.78
67987;BME280;54767;53.800;15.956;2022-12-11T10:46:21;99598.27;;;-1.27;74.82
67987;BME280;54767;53.800;15.956;2022-12-11T10:48:51;99599.56;;;-1.24;74.96
67987;BME280;54767;53.800;15.956;2022-12-11T10:51:23;99604.15;;;-1.21;74.61
67987;BME280;54767;53.800;15.956;2022-12-11T10:53:54;99604.95;;;-1.18;75.13
67987;BME280;54767;53.800;15.956;2022-12-11T10:56:32;99606.25;;;-1.16;75.02
67987;BME280;54767;53.800;15.956;2022-12-11T10:59:01;99604.46;;;-1.13;75.08
67987;BME280;54767;53.800;15.956;2022-12-11T11:01:31;99601.52;;;-1.13;74.70
67987;BME280;54767;53.800;15.956;2022-12-11T11:04:04;99599.55;;;-1.16;74.80
67987;BME280;54767;53.800;15.956;2022-12-11T11:06:33;99599.79;;;-1.19;74.99
67987;BME280;54767;53.800;15.956;2022-12-11T11:09:02;99600.71;;;-1.21;75.09
67987;BME280;54767;53.800;15.956;2022-12-11T11:11:37;99599.98;;;-1.22;75.06
67987;BME280;54767;53.800;15.956;2022-12-11T11:14:15;99604.42;;;-1.23;74.85
67987;BME280;54767;53.800;15.956;2022-12-11T11:16:46;99603.39;;;-1.23;75.18
67987;BME280;54767;53.800;15.956;2022-12-11T11:19:24;99604.83;;;-1.21;75.18
67987;BME280;54767;53.800;15.956;2022-12-11T11:22:00;99604.38;;;-1.20;75.24
67987;BME280;54767;53.800;15.956;2022-12-11T11:24:37;99600.81;;;-1.19;75.06
67987;BME280;54767;53.800;15.956;2022-12-11T11:30:01;99591.31;;;-1.16;75.41
67987;BME280;54767;53.800;15.956;2022-12-11T11:32:33;99586.63;;;-1.12;75.50
67987;BME280;54767;53.800;15.956;2022-12-11T11:35:27;99588.91;;;-1.06;75.57
67987;BME280;54767;53.800;15.956;2022-12-11T11:38:16;99593.10;;;-1.00;75.45
67987;BME280;54767;53.800;15.956;2022-12-11T11:43:37;99593.48;;;-0.95;75.46
67987;BME280;54767;53.800;15.956;2022-12-11T11:48:49;99582.60;;;-0.92;75.57
67987;BME280;54767;53.800;15.956;2022-12-11T11:51:30;99579.94;;;-0.94;75.42
67987;BME280;54767;53.800;15.956;2022-12-11T11:54:55;99576.91;;;-0.93;75.55
67987;BME280;54767;53.800;15.956;2022-12-11T11:56:57;99572.09;;;-0.93;75.42
67987;BME280;54767;53.800;15.956;2022-12-11T11:59:43;99568.54;;;-0.91;75.84
67987;BME280;54767;53.800;15.956;2022-12-11T12:02:15;99562.62;;;-0.88;75.58
67987;BME280;54767;53.800;15.956;2022-12-11T12:04:45;99561.34;;;-0.86;75.63
67987;BME280;54767;53.800;15.956;2022-12-11T12:09:49;99543.63;;;-0.86;75.59
67987;BME280;54767;53.800;15.956;2022-12-11T12:18:16;99540.97;;;-0.79;75.53
67987;BME280;54767;53.800;15.956;2022-12-11T12:20:59;99538.17;;;-0.76;75.74
67987;BME280;54767;53.800;15.956;2022-12-11T12:26:27;99529.49;;;-0.78;75.44
67987;BME280;54767;53.800;15.956;2022-12-11T12:29:10;99530.37;;;-0.82;75.26
67987;BME280;54767;53.800;15.956;2022-12-11T12:31:54;99524.97;;;-0.89;75.36
67987;BME280;54767;53.800;15.956;2022-12-11T12:46:03;99509.02;;;-0.84;75.71
67987;BME280;54767;53.800;15.956;2022-12-11T12:48:35;99512.89;;;-0.81;75.66
67987;BME280;54767;53.800;15.956;2022-12-11T12:51:03;99504.45;;;-0.82;75.60
67987;BME280;54767;53.800;15.956;2022-12-11T12:53:33;99502.99;;;-0.84;75.43
67987;BME280;54767;53.800;15.956;2022-12-11T12:56:04;99497.47;;;-0.85;75.38
67987;BME280;54767;53.800;15.956;2022-12-11T13:01:14;99490.42;;;-0.90;75.50
67987;BME280;54767;53.800;15.956;2022-12-11T13:04:05;99488.34;;;-0.90;75.45
67987;BME280;54767;53.800;15.956;2022-12-11T13:06:44;99484.81;;;-0.88;75.65
67987;BME280;54767;53.800;15.956;2022-12-11T13:09:21;99486.59;;;-0.86;75.33
67987;BME280;54767;53.800;15.956;2022-12-11T13:11:53;99485.44;;;-0.85;75.40
67987;BME280;54767;53.800;15.956;2022-12-11T13:14:30;99484.58;;;-0.85;75.89
67987;BME280;54767;53.800;15.956;2022-12-11T13:19:49;99484.05;;;-0.86;75.59
67987;BME280;54767;53.800;15.956;2022-12-11T13:22:22;99483.65;;;-0.87;76.00
67987;BME280;54767;53.800;15.956;2022-12-11T13:27:38;99479.58;;;-0.86;75.74
67987;BME280;54767;53.800;15.956;2022-12-11T13:35:28;99486.02;;;-0.69;75.11
67987;BME280;54767;53.800;15.956;2022-12-11T13:38:05;99481.64;;;-0.66;74.86
67987;BME280;54767;53.800;15.956;2022-12-11T13:40:37;99482.72;;;-0.64;74.81
67987;BME280;54767;53.800;15.956;2022-12-11T13:43:15;99481.47;;;-0.66;74.76
67987;BME280;54767;53.800;15.956;2022-12-11T13:45:49;99478.71;;;-0.66;74.62
67987;BME280;54767;53.800;15.956;2022-12-11T13:48:22;99476.58;;;-0.68;74.35
67987;BME280;54767;53.800;15.956;2022-12-11T13:50:52;99478.70;;;-0.72;74.11
67987;BME280;54767;53.800;15.956;2022-12-11T13:53:21;99484.61;;;-0.74;74.42
67987;BME280;54767;53.800;15.956;2022-12-11T13:58:29;99489.61;;;-0.74;73.84
67987;BME280;54767;53.800;15.956;2022-12-11T14:03:38;99487.64;;;-0.76;74.09
67987;BME280;54767;53.800;15.956;2022-12-11T14:06:10;99484.93;;;-0.80;73.67
67987;BME280;54767;53.800;15.956;2022-12-11T14:08:49;99491.33;;;-0.84;73.86
67987;BME280;54767;53.800;15.956;2022-12-11T14:11:48;99492.73;;;-0.88;74.05
67987;BME280;54767;53.800;15.956;2022-12-11T14:14:49;99490.52;;;-0.92;74.34
67987;BME280;54767;53.800;15.956;2022-12-11T14:17:28;99496.69;;;-0.97;74.43
67987;BME280;54767;53.800;15.956;2022-12-11T14:20:00;99502.30;;;-0.99;74.22
67987;BME280;54767;53.800;15.956;2022-12-11T14:22:29;99500.12;;;-1.02;74.77
67987;BME280;54767;53.800;15.956;2022-12-11T14:25:00;99494.00;;;-1.05;74.66
67987;BME280;54767;53.800;15.956;2022-12-11T14:27:30;99497.95;;;-1.05;75.06
67987;BME280;54767;53.800;15.956;2022-12-11T14:30:09;99499.63;;;-1.06;74.81
67987;BME280;54767;53.800;15.956;2022-12-11T14:32:41;99498.45;;;-1.05;75.11
67987;BME280;54767;53.800;15.956;2022-12-11T14:35:41;99506.42;;;-1.04;75.27
67987;BME280;54767;53.800;15.956;2022-12-11T14:38:34;99504.88;;;-1.04;75.05
67987;BME280;54767;53.800;15.956;2022-12-11T14:41:12;99501.30;;;-1.03;75.13
67987;BME280;54767;53.800;15.956;2022-12-11T14:48:18;99501.48;;;-0.93;75.06
67987;BME280;54767;53.800;15.956;2022-12-11T14:50:54;99499.59;;;-0.88;74.86